createdAt,value
2022-08-08T00:00:54.452Z,22.00
2022-08-08T00:05:22.302Z,21.94
2022-08-08T00:10:49.862Z,21.92
2022-08-08T00:16:01.138Z,21.87
2022-08-08T00:21:07.635Z,21.55
2022-08-08T00:26:13.535Z,21.49
2022-08-08T00:32:28.743Z,21.50
2022-08-08T00:37:03.422Z,21.54
2022-08-08T00:42:42.135Z,21.39
2022-08-08T00:48:30.579Z,21.29
2022-08-08T00:54:18.598Z,21.31
2022-08-08T01:00:00.584Z,21.26
2022-08-08T01:05:58.929Z,21.15
2022-08-08T01:11:56.923Z,21.04
2022-08-08T01:17:51.710Z,20.89
2022-08-08T01:24:05.308Z,20.91
2022-08-08T01:29:06.815Z,20.83
2022-08-08T01:34:52.094Z,20.67
2022-08-08T01:40:06.564Z,20.52
2022-08-08T01:45:34.313Z,20.30
2022-08-08T01:50:55.139Z,20.32
2022-08-08T01:56:28.199Z,20.30
2022-08-08T02:02:00.242Z,20.17
2022-08-08T02:07:13.775Z,20.15
2022-08-08T02:12:26.086Z,19.89
2022-08-08T02:17:36.467Z,19.92
2022-08-08T02:22:57.082Z,19.83
2022-08-08T02:28:03.255Z,19.86
2022-08-08T02:33:21.589Z,19.89
2022-08-08T02:39:01.050Z,19.83
2022-08-08T02:44:57.297Z,19.68
2022-08-08T02:50:34.134Z,19.65
2022-08-08T02:56:22.483Z,19.61
2022-08-08T03:02:19.817Z,19.68
2022-08-08T03:08:02.511Z,19.68
2022-08-08T03:16:00.049Z,19.55
2022-08-08T03:19:51.511Z,19.58
2022-08-08T03:24:59.678Z,19.46
2022-08-08T03:30:07.290Z,19.35
2022-08-08T03:35:12.094Z,19.18
2022-08-08T03:40:29.908Z,19.19
2022-08-08T03:46:06.326Z,19.15
2022-08-08T03:51:01.727Z,19.09
2022-08-08T03:56:09.703Z,19.13
2022-08-08T04:01:23.019Z,19.02
2022-08-08T04:06:30.515Z,19.08
2022-08-08T04:11:58.866Z,19.08
2022-08-08T04:17:57.821Z,18.93
2022-08-08T04:22:51.629Z,19.14
2022-08-08T04:28:03.382Z,19.14
2022-08-08T04:33:21.597Z,19.22
2022-08-08T04:38:26.240Z,19.30
2022-08-08T04:43:45.334Z,19.33
2022-08-08T04:48:55.770Z,19.13
2022-08-08T04:54:38.561Z,19.58
2022-08-08T04:59:29.753Z,19.72
2022-08-08T05:04:34.910Z,19.87
2022-08-08T05:09:38.650Z,20.00
2022-08-08T05:14:44.715Z,19.99
2022-08-08T05:20:09.148Z,20.25
2022-08-08T05:25:21.512Z,20.52
2022-08-08T05:30:28.189Z,20.66
2022-08-08T05:35:36.007Z,20.95
2022-08-08T05:40:47.184Z,20.67
2022-08-08T05:46:03.496Z,20.91
2022-08-08T05:51:15.201Z,20.59
2022-08-08T05:56:21.827Z,21.54
2022-08-08T06:01:55.856Z,21.79
2022-08-08T06:06:53.086Z,21.28
2022-08-08T06:12:01.364Z,21.97
2022-08-08T06:17:07.523Z,22.02
2022-08-08T06:22:42.229Z,22.23
2022-08-08T06:27:53.851Z,22.14
2022-08-08T06:33:04.908Z,21.59
2022-08-08T06:38:21.200Z,22.29
2022-08-08T06:43:37.251Z,23.04
2022-08-08T06:48:50.801Z,23.27
2022-08-08T06:53:56.593Z,22.14
2022-08-08T06:59:12.342Z,22.81
2022-08-08T07:04:38.778Z,23.21
2022-08-08T07:09:59.870Z,23.72
2022-08-08T07:15:23.169Z,23.62
2022-08-08T07:20:45.949Z,23.51
2022-08-08T07:25:57.676Z,24.67
2022-08-08T07:31:04.820Z,24.75
2022-08-08T07:36:11.000Z,24.78
2022-08-08T07:41:24.742Z,25.09
2022-08-08T07:46:30.946Z,24.56
2022-08-08T07:51:53.618Z,24.94
2022-08-08T07:57:08.823Z,25.71
2022-08-08T08:02:33.038Z,25.58
2022-08-08T08:07:46.045Z,26.09
2022-08-08T08:13:20.501Z,26.64
2022-08-08T08:18:52.106Z,26.94
2022-08-08T08:24:02.706Z,27.18
2022-08-08T08:29:07.253Z,26.68
2022-08-08T08:34:21.883Z,27.01
2022-08-08T08:39:59.645Z,26.44
2022-08-08T08:44:57.660Z,27.98
2022-08-08T08:50:08.347Z,27.75
2022-08-08T08:55:41.832Z,27.99
2022-08-08T09:01:09.940Z,28.61
2022-08-08T09:06:26.452Z,28.84
2022-08-08T09:11:47.783Z,28.92
2022-08-08T09:17:11.697Z,29.67
2022-08-08T09:22:19.655Z,29.13
2022-08-08T09:27:57.691Z,29.91
2022-08-08T09:33:54.347Z,30.08
2022-08-08T09:38:32.800Z,30.46
2022-08-08T09:44:06.158Z,30.91
2022-08-08T09:49:41.729Z,31.01
2022-08-08T09:54:44.017Z,30.15
2022-08-08T10:00:21.011Z,30.74
2022-08-08T10:05:31.373Z,30.73
2022-08-08T10:10:38.617Z,31.89
2022-08-08T10:15:59.052Z,32.18
2022-08-08T10:21:26.184Z,31.34
2022-08-08T10:26:59.090Z,31.74
2022-08-08T10:32:22.862Z,31.98
2022-08-08T10:37:30.922Z,32.35
2022-08-08T10:42:44.776Z,33.08
2022-08-08T10:47:55.799Z,33.05
2022-08-08T10:53:02.611Z,33.36
2022-08-08T10:58:10.127Z,33.57
2022-08-08T11:03:17.932Z,33.52
2022-08-08T11:08:37.971Z,34.35
2022-08-08T11:13:51.994Z,33.38
2022-08-08T11:19:33.819Z,34.22
2022-08-08T11:24:38.030Z,33.27
2022-08-08T11:30:18.825Z,34.05
2022-08-08T11:35:27.243Z,33.93
2022-08-08T11:40:35.605Z,34.23
2022-08-08T11:46:06.965Z,34.46
2022-08-08T11:51:39.879Z,33.97
2022-08-08T11:57:14.589Z,35.07
2022-08-08T12:02:49.258Z,36.16
2022-08-08T12:07:57.116Z,36.53
2022-08-08T12:13:05.336Z,35.76
2022-08-08T12:18:18.099Z,35.04
2022-08-08T12:23:43.034Z,34.55
2022-08-08T12:28:55.896Z,33.13
2022-08-08T12:34:02.791Z,34.90
2022-08-08T12:39:08.586Z,35.68
2022-08-08T12:44:30.303Z,36.22
2022-08-08T12:50:04.432Z,35.82
2022-08-08T12:55:14.289Z,35.85
2022-08-08T13:00:39.448Z,34.85
2022-08-08T13:06:04.326Z,36.09
2022-08-08T13:11:20.192Z,36.74
2022-08-08T13:16:26.444Z,34.42
2022-08-08T13:21:48.744Z,35.74
2022-08-08T13:27:11.659Z,35.88
2022-08-08T13:32:16.742Z,35.25
2022-08-08T13:37:51.882Z,36.33
2022-08-08T13:42:48.124Z,34.61
2022-08-08T13:47:58.217Z,34.05
2022-08-08T13:53:02.018Z,34.07
2022-08-08T13:58:28.869Z,34.00
2022-08-08T14:03:53.249Z,34.35
2022-08-08T14:08:58.050Z,34.29
2022-08-08T14:14:39.583Z,34.00
2022-08-08T14:19:55.688Z,33.04
2022-08-08T14:25:07.589Z,33.87
2022-08-08T14:30:18.107Z,34.04
2022-08-08T14:35:23.467Z,33.73
2022-08-08T14:40:29.701Z,33.00
2022-08-08T14:46:02.671Z,32.64
2022-08-08T14:51:05.292Z,33.56
2022-08-08T14:56:10.527Z,33.06
2022-08-08T15:01:23.926Z,33.62
2022-08-08T15:06:31.433Z,32.99
2022-08-08T15:11:43.187Z,32.02
2022-08-08T15:16:51.510Z,33.54
2022-08-08T15:21:54.921Z,32.98
2022-08-08T15:27:12.060Z,33.21
2022-08-08T15:32:30.412Z,33.35
2022-08-08T15:37:34.883Z,32.06
2022-08-08T15:42:38.892Z,32.79
2022-08-08T15:48:05.541Z,32.66
2022-08-08T15:53:08.455Z,34.39
2022-08-08T15:58:14.235Z,34.17
2022-08-08T16:03:19.190Z,32.63
2022-08-08T16:08:22.989Z,32.29
2022-08-08T16:13:34.394Z,32.89
2022-08-08T16:18:56.702Z,32.51
2022-08-08T16:24:02.998Z,32.64
2022-08-08T16:29:09.350Z,32.02
2022-08-08T16:34:14.914Z,32.08
2022-08-08T16:40:01.000Z,31.49
2022-08-08T16:44:54.406Z,30.87
2022-08-08T16:49:59.964Z,30.84
2022-08-08T16:55:33.742Z,30.63
2022-08-08T17:00:29.305Z,31.52
2022-08-08T17:05:44.712Z,31.94
2022-08-08T17:10:57.518Z,32.14
2022-08-08T17:16:02.990Z,31.21
2022-08-08T17:21:11.693Z,31.05
2022-08-08T17:26:15.918Z,30.50
2022-08-08T17:31:44.373Z,31.64
2022-08-08T17:37:01.818Z,31.52
2022-08-08T17:42:07.372Z,31.01
2022-08-08T17:47:10.873Z,30.27
2022-08-08T17:52:23.323Z,30.10
2022-08-08T17:57:28.935Z,30.62
2022-08-08T18:02:39.214Z,30.38
2022-08-08T18:08:15.537Z,30.58
2022-08-08T18:13:09.113Z,29.64
2022-08-08T18:18:28.393Z,29.94
2022-08-08T18:23:35.070Z,30.17
2022-08-08T18:28:54.728Z,29.54
2022-08-08T18:34:12.115Z,30.04
2022-08-08T18:39:27.516Z,29.44
2022-08-08T18:44:35.847Z,29.50
2022-08-08T18:49:54.859Z,29.64
2022-08-08T18:55:10.790Z,29.28
2022-08-08T19:00:20.060Z,29.23
2022-08-08T19:05:24.486Z,28.63
2022-08-08T19:10:37.449Z,28.28
2022-08-08T19:15:44.797Z,28.36
2022-08-08T19:20:48.351Z,28.04
2022-08-08T19:26:19.810Z,28.18
2022-08-08T19:31:17.660Z,28.23
2022-08-08T19:36:28.309Z,27.86
2022-08-08T19:41:34.138Z,27.64
2022-08-08T19:46:38.610Z,27.35
2022-08-08T19:51:43.714Z,27.14
2022-08-08T19:56:50.552Z,26.63
2022-08-08T20:02:03.227Z,26.92
2022-08-08T20:08:28.533Z,26.17
2022-08-08T20:12:36.886Z,26.06
2022-08-08T20:17:41.842Z,26.63
2022-08-08T20:22:45.742Z,26.52
2022-08-08T20:28:07.904Z,26.60
2022-08-08T20:38:31.908Z,26.16
2022-08-08T20:43:43.803Z,26.44
2022-08-08T20:48:52.042Z,25.71
2022-08-08T20:53:59.233Z,26.23
2022-08-08T20:59:09.159Z,25.31
2022-08-08T21:04:14.156Z,25.86
2022-08-08T21:09:17.993Z,25.53
2022-08-08T21:14:33.576Z,25.78
2022-08-08T21:19:45.648Z,25.31
2022-08-08T21:24:52.822Z,25.30
2022-08-08T21:30:03.854Z,25.10
2022-08-08T21:36:14.844Z,25.20
2022-08-08T21:40:34.984Z,25.28
2022-08-08T21:48:01.632Z,25.40
2022-08-08T21:51:04.923Z,25.44
2022-08-08T21:56:29.494Z,25.32
2022-08-08T22:01:41.349Z,24.92
2022-08-08T22:06:48.667Z,25.10
2022-08-08T22:12:08.884Z,25.04
2022-08-08T22:17:16.524Z,24.74
2022-08-08T22:22:28.801Z,24.50
2022-08-08T22:27:39.035Z,24.71
2022-08-08T22:33:00.147Z,24.84
2022-08-08T22:38:03.737Z,24.73
2022-08-08T22:43:07.665Z,24.72
2022-08-08T22:48:13.818Z,24.73
2022-08-08T22:54:31.460Z,24.50
2022-08-08T22:58:40.958Z,24.25
2022-08-08T23:03:53.879Z,24.16
2022-08-08T23:09:00.371Z,24.10
2022-08-08T23:14:04.046Z,23.88
2022-08-08T23:19:10.068Z,23.94
2022-08-08T23:24:22.564Z,23.84
2022-08-08T23:29:29.716Z,23.75
2022-08-08T23:34:36.720Z,23.64
2022-08-08T23:39:49.436Z,23.56
2022-08-08T23:44:59.155Z,23.62
2022-08-08T23:50:05.471Z,23.44
2022-08-08T23:55:19.426Z,23.34
